Time;durP1;ratioP1;P1;durP2;ratioP2;P2;SDS_P1;SDS_P2;PMS_P1;PMS_P2;Temp;Humidity;BMP_temperature;BMP_pressure;BME280_temperature;BME280_humidity;BME280_pressure;Samples;Min_cycle;Max_cycle;Signal;HPM_P1;HPM_P2
2022/09/30 00:00:56;;;;;;;7.90;6.60;;;7.50;99.90;;;;;;5002072;28;20217;-71
2022/09/30 00:03:22;;;;;;;6.00;5.13;;;7.50;99.90;;;;;;5004480;28;20179;-71
2022/09/30 00:06:02;;;;;;;10.60;6.87;;;7.50;99.90;;;;;;5003810;28;20271;-72
2022/09/30 00:08:28;;;;;;;5.40;4.90;;;7.50;99.90;;;;;;5004288;28;20451;-71
2022/09/30 00:11:03;;;;;;;13.07;6.60;;;7.60;99.90;;;;;;5003670;28;20420;-72
2022/09/30 00:13:30;;;;;;;6.07;5.47;;;7.60;99.90;;;;;;5004151;28;20184;-72
2022/09/30 00:15:55;;;;;;;12.00;5.30;;;7.60;99.90;;;;;;5005633;28;20904;-73
2022/09/30 00:18:21;;;;;;;7.70;6.30;;;7.60;99.90;;;;;;5005663;28;20470;-71
2022/09/30 00:20:46;;;;;;;6.87;6.27;;;7.60;99.90;;;;;;5003485;28;20202;-69
2022/09/30 00:23:12;;;;;;;6.30;5.27;;;7.70;99.90;;;;;;5004006;28;20174;-72
2022/09/30 00:25:37;;;;;;;7.40;6.20;;;7.60;99.90;;;;;;5004586;28;20191;-71
2022/09/30 00:28:03;;;;;;;9.63;6.73;;;7.70;99.90;;;;;;5003221;28;20229;-71
2022/09/30 00:30:28;;;;;;;9.00;6.07;;;7.70;99.90;;;;;;5005739;28;20249;-72
2022/09/30 00:32:54;;;;;;;13.73;5.50;;;7.70;99.90;;;;;;5001170;28;20580;-72
2022/09/30 00:35:20;;;;;;;14.17;6.10;;;7.80;99.90;;;;;;5007396;28;20193;-72
2022/09/30 00:37:46;;;;;;;7.70;5.70;;;7.80;99.90;;;;;;5000428;28;20184;-71
2022/09/30 00:40:12;;;;;;;6.60;5.90;;;7.80;99.90;;;;;;5005479;28;20791;-71
2022/09/30 00:42:40;;;;;;;10.57;6.60;;;7.80;99.90;;;;;;5005696;28;20202;-72
2022/09/30 00:45:09;;;;;;;11.30;5.60;;;7.80;99.90;;;;;;5000594;28;20184;-71
2022/09/30 00:47:52;;;;;;;7.33;4.80;;;7.80;99.90;;;;;;5007091;28;20420;-71
2022/09/30 00:50:31;;;;;;;10.43;6.27;;;7.90;99.90;;;;;;5000179;28;20474;-72
2022/09/30 00:53:11;;;;;;;6.90;5.63;;;7.90;99.90;;;;;;5007865;28;20520;-72
2022/09/30 00:55:46;;;;;;;8.00;6.13;;;7.90;99.90;;;;;;5000018;28;20442;-72
2022/09/30 00:58:35;;;;;;;7.30;5.90;;;7.90;99.90;;;;;;5000518;28;20446;-73
2022/09/30 02:31:42;;;;;;;6.03;4.77;;;8.20;99.90;;;;;;5688663;22;20493;-71
2022/09/30 02:34:13;;;;;;;6.63;5.93;;;8.10;99.90;;;;;;5014459;28;20494;-72
2022/09/30 02:37:10;;;;;;;6.27;5.07;;;8.10;99.90;;;;;;5017764;28;20405;-71
2022/09/30 02:39:45;;;;;;;6.60;5.27;;;8.10;99.90;;;;;;5009373;28;20424;-73
2022/09/30 02:42:19;;;;;;;5.00;4.53;;;8.10;99.90;;;;;;4988882;28;20482;-72
2022/09/30 02:44:47;;;;;;;6.60;5.30;;;8.00;99.90;;;;;;4990352;28;20694;-71
2022/09/30 02:47:50;;;;;;;7.00;5.20;;;8.00;99.90;;;;;;4989998;28;20501;-72
2022/09/30 02:50:25;;;;;;;9.13;5.97;;;7.90;99.90;;;;;;4982810;28;20753;-71
2022/09/30 02:53:03;;;;;;;8.27;5.27;;;7.80;99.90;;;;;;4983541;28;21002;-72
2022/09/30 02:55:43;;;;;;;7.30;6.00;;;7.80;99.90;;;;;;4985968;28;20471;-72
2022/09/30 02:58:15;;;;;;;6.20;5.57;;;7.80;99.90;;;;;;4981664;28;20410;-71
2022/09/30 03:00:41;;;;;;;5.77;5.17;;;7.70;99.90;;;;;;4982328;28;20462;-72
2022/09/30 03:03:15;;;;;;;6.60;5.63;;;7.60;99.90;;;;;;4985300;28;20485;-72
2022/09/30 03:05:42;;;;;;;5.63;4.93;;;7.60;99.90;;;;;;4982454;28;20663;-72
2022/09/30 03:08:07;;;;;;;9.47;6.70;;;7.60;99.90;;;;;;4985528;28;20421;-72
2022/09/30 03:10:33;;;;;;;12.93;6.57;;;7.50;99.90;;;;;;4985551;28;20839;-70
2022/09/30 03:13:13;;;;;;;9.03;5.80;;;7.50;99.90;;;;;;4983721;28;20180;-72
2022/09/30 03:15:52;;;;;;;10.50;4.90;;;7.50;99.90;;;;;;4982352;28;20193;-72
2022/09/30 03:18:51;;;;;;;6.60;6.00;;;7.50;99.90;;;;;;4982246;28;20919;-72
2022/09/30 03:21:50;;;;;;;10.00;7.00;;;7.50;99.90;;;;;;4981850;28;20529;-72
2022/09/30 03:24:34;;;;;;;7.90;5.53;;;7.50;99.90;;;;;;4982155;28;20958;-74
2022/09/30 03:27:08;;;;;;;10.97;6.43;;;7.40;99.90;;;;;;4983949;28;20432;-72
2022/09/30 03:29:44;;;;;;;8.87;6.30;;;7.40;99.90;;;;;;4985387;28;20462;-72
2022/09/30 03:32:28;;;;;;;8.27;5.97;;;7.40;99.90;;;;;;4984965;28;21034;-71
2022/09/30 03:35:20;;;;;;;8.27;6.90;;;7.40;99.90;;;;;;4984351;28;20423;-71
2022/09/30 03:38:12;;;;;;;11.23;6.67;;;7.40;99.90;;;;;;4990045;28;20429;-71
2022/09/30 03:41:02;;;;;;;13.03;8.43;;;7.40;99.90;;;;;;4981843;28;20552;-71
2022/09/30 03:43:49;;;;;;;7.20;6.00;;;7.40;99.90;;;;;;4981548;28;20454;-72
2022/09/30 03:46:23;;;;;;;6.63;5.80;;;7.40;99.90;;;;;;4981883;28;20405;-72
2022/09/30 03:48:53;;;;;;;8.60;5.70;;;7.40;99.90;;;;;;4982407;28;20419;-72
2022/09/30 03:51:20;;;;;;;7.83;6.40;;;7.40;99.90;;;;;;4984707;28;20438;-72
2022/09/30 03:53:46;;;;;;;11.20;6.60;;;7.40;99.90;;;;;;4984802;28;20449;-71
2022/09/30 03:56:12;;;;;;;11.57;6.00;;;7.40;99.90;;;;;;4981709;28;20839;-71
2022/09/30 03:58:43;;;;;;;13.80;5.90;;;7.50;99.90;;;;;;4981486;28;20424;-72
2022/09/30 04:01:20;;;;;;;20.83;7.03;;;7.40;99.90;;;;;;4984244;28;20464;-72
2022/09/30 04:03:47;;;;;;;10.00;6.90;;;7.50;99.90;;;;;;4981654;28;20488;-71
2022/09/30 04:06:13;;;;;;;11.40;6.83;;;7.50;99.90;;;;;;4989109;28;20448;-72
2022/09/30 04:08:38;;;;;;;11.80;6.80;;;7.50;99.90;;;;;;4980400;28;20448;-71
2022/09/30 04:11:04;;;;;;;9.57;6.13;;;7.50;99.90;;;;;;4981763;28;20533;-71
2022/09/30 04:13:30;;;;;;;9.63;7.80;;;7.50;99.90;;;;;;4980959;28;20189;-72
2022/09/30 04:15:56;;;;;;;9.63;7.07;;;7.50;99.90;;;;;;4982593;28;20675;-71
2022/09/30 04:18:21;;;;;;;7.43;6.13;;;7.50;99.90;;;;;;4985242;28;20425;-72
2022/09/30 04:20:47;;;;;;;9.30;7.40;;;7.50;99.90;;;;;;4981328;28;20229;-72
2022/09/30 04:23:12;;;;;;;8.50;6.57;;;7.50;99.90;;;;;;4984371;28;20178;-72
2022/09/30 04:25:38;;;;;;;12.20;6.23;;;7.50;99.90;;;;;;4984280;28;20183;-72
2022/09/30 04:28:03;;;;;;;6.93;6.17;;;7.40;99.90;;;;;;4981744;28;20188;-72
2022/09/30 04:30:29;;;;;;;7.60;6.10;;;7.40;99.90;;;;;;4981166;28;20177;-72
2022/09/30 04:32:54;;;;;;;8.10;6.00;;;7.40;99.90;;;;;;4980639;28;20306;-72
2022/09/30 04:35:20;;;;;;;6.83;6.10;;;7.40;99.90;;;;;;4981186;28;20177;-72
2022/09/30 04:37:46;;;;;;;7.23;6.37;;;7.40;99.90;;;;;;4988812;28;20182;-71
2022/09/30 04:40:14;;;;;;;15.43;6.80;;;7.50;99.90;;;;;;4980931;28;20181;-72
2022/09/30 04:42:41;;;;;;;6.87;5.60;;;7.40;99.90;;;;;;4980577;28;20478;-71
2022/09/30 04:45:08;;;;;;;10.23;6.17;;;7.40;99.90;;;;;;4983816;28;20426;-71
2022/09/30 04:47:34;;;;;;;9.30;7.07;;;7.40;99.90;;;;;;4984037;28;20419;-71
2022/09/30 04:49:59;;;;;;;9.13;7.37;;;7.30;99.90;;;;;;4981992;28;20777;-73
2022/09/30 04:52:25;;;;;;;6.83;6.17;;;7.30;99.90;;;;;;4980670;28;20596;-71
2022/09/30 04:54:50;;;;;;;11.00;6.17;;;7.20;99.90;;;;;;4982027;28;20550;-72
2022/09/30 04:57:16;;;;;;;13.07;6.57;;;7.20;99.90;;;;;;4983966;28;20548;-72
2022/09/30 04:59:42;;;;;;;8.27;5.90;;;7.20;99.90;;;;;;4983936;28;20188;-73
2022/09/30 05:02:11;;;;;;;10.17;6.47;;;7.20;99.90;;;;;;4980170;28;20526;-71
2022/09/30 05:04:37;;;;;;;10.20;6.77;;;7.20;99.90;;;;;;4980429;28;20441;-71
2022/09/30 05:07:07;;;;;;;8.77;6.77;;;7.20;99.90;;;;;;4982830;28;20497;-71
2022/09/30 05:09:33;;;;;;;7.67;6.87;;;7.10;99.90;;;;;;4983805;28;20194;-71
2022/09/30 05:12:00;;;;;;;8.17;7.37;;;7.20;99.90;;;;;;4981457;28;20452;-72
2022/09/30 05:14:26;;;;;;;7.10;6.17;;;7.20;99.90;;;;;;4979329;28;20496;-71
2022/09/30 05:16:51;;;;;;;8.77;7.27;;;7.20;99.90;;;;;;4981283;28;20470;-72
2022/09/30 05:19:17;;;;;;;8.83;6.80;;;7.20;99.90;;;;;;4983691;28;20186;-72
2022/09/30 05:21:43;;;;;;;14.33;6.40;;;7.20;99.90;;;;;;4984419;28;20255;-72
2022/09/30 05:24:09;;;;;;;12.57;7.00;;;7.20;99.90;;;;;;4984764;28;20175;-72
2022/09/30 05:26:35;;;;;;;9.50;7.00;;;7.20;99.90;;;;;;4984054;28;20438;-72
2022/09/30 05:29:00;;;;;;;11.83;6.43;;;7.20;99.90;;;;;;4986532;28;20426;-72
2022/09/30 05:31:26;;;;;;;9.30;5.20;;;7.20;99.90;;;;;;4986877;28;20221;-72
2022/09/30 05:33:53;;;;;;;11.93;6.70;;;7.20;99.90;;;;;;4987091;28;20185;-71
2022/09/30 05:36:19;;;;;;;8.70;6.80;;;7.10;99.90;;;;;;4986744;28;20274;-71
2022/09/30 05:38:44;;;;;;;8.40;6.47;;;7.20;99.90;;;;;;4979580;28;20513;-72
2022/09/30 05:41:12;;;;;;;8.73;6.60;;;7.20;99.90;;;;;;4987291;28;20296;-72
2022/09/30 05:43:39;;;;;;;9.67;7.30;;;7.20;99.90;;;;;;4987296;28;20268;-72
2022/09/30 05:46:05;;;;;;;9.50;7.40;;;7.20;99.90;;;;;;4984747;28;20419;-72
2022/09/30 05:48:31;;;;;;;8.27;7.30;;;7.40;99.90;;;;;;4983956;28;20492;-72
2022/09/30 05:50:59;;;;;;;9.03;7.47;;;7.80;99.90;;;;;;4985366;28;20960;-72
2022/09/30 05:53:26;;;;;;;6.83;5.93;;;8.30;99.90;;;;;;4987277;28;20215;-72
2022/09/30 05:55:51;;;;;;;8.53;5.80;;;9.00;99.90;;;;;;4987412;28;20483;-72
2022/09/30 05:58:18;;;;;;;9.10;6.03;;;9.70;99.90;;;;;;4982955;28;20426;-72
2022/09/30 06:00:45;;;;;;;7.00;5.10;;;10.30;99.90;;;;;;4983580;28;20366;-72
2022/09/30 06:03:11;;;;;;;11.93;4.70;;;10.90;99.90;;;;;;4983429;28;20947;-72
2022/09/30 06:05:37;;;;;;;8.60;5.20;;;11.50;99.90;;;;;;4983483;28;20442;-72
2022/09/30 06:08:03;;;;;;;5.90;5.37;;;12.00;99.90;;;;;;4985799;28;20175;-72
2022/09/30 06:10:29;;;;;;;5.17;4.77;;;12.50;99.90;;;;;;4983439;28;20323;-72
2022/09/30 06:12:54;;;;;;;5.93;5.10;;;12.90;99.90;;;;;;4984242;28;20537;-72
2022/09/30 06:15:20;;;;;;;5.17;4.70;;;13.30;99.90;;;;;;4986735;28;20183;-73
2022/09/30 06:17:52;;;;;;;8.13;5.63;;;13.80;99.90;;;;;;4986740;28;20186;-73
2022/09/30 06:20:18;;;;;;;7.87;5.03;;;14.30;99.90;;;;;;4981980;28;20619;-72
2022/09/30 06:22:43;;;;;;;6.60;4.80;;;14.60;99.90;;;;;;4985933;28;20548;-73
2022/09/30 06:25:09;;;;;;;7.30;5.70;;;15.40;99.90;;;;;;4983297;28;20176;-72
2022/09/30 06:27:38;;;;;;;9.53;6.23;;;16.00;99.90;;;;;;4983101;28;20184;-72
2022/09/30 06:30:05;;;;;;;6.83;5.10;;;16.20;99.90;;;;;;4985745;28;20427;-74
2022/09/30 06:32:31;;;;;;;9.10;6.40;;;16.50;99.90;;;;;;4985510;28;20797;-73
2022/09/30 06:34:57;;;;;;;6.97;5.40;;;17.00;99.90;;;;;;4984974;28;20484;-75
2022/09/30 06:37:23;;;;;;;8.77;6.90;;;17.70;99.90;;;;;;4983769;28;20234;-73
2022/09/30 06:39:51;;;;;;;7.40;6.70;;;17.60;99.90;;;;;;4983281;28;20198;-74
2022/09/30 06:42:17;;;;;;;7.70;5.77;;;17.30;99.90;;;;;;4986052;28;20560;-72
2022/09/30 06:44:44;;;;;;;9.20;6.60;;;17.90;99.90;;;;;;4982884;28;20510;-72
2022/09/30 06:47:10;;;;;;;10.63;6.80;;;17.20;99.90;;;;;;4986043;28;20175;-73
2022/09/30 06:49:35;;;;;;;8.87;8.03;;;16.90;99.90;;;;;;4985984;28;20421;-72
2022/09/30 06:52:01;;;;;;;7.70;6.90;;;16.90;99.90;;;;;;4983720;28;20442;-72
2022/09/30 06:54:29;;;;;;;11.73;10.50;;;17.20;99.90;;;;;;4982640;28;20259;-73
2022/09/30 06:56:56;;;;;;;10.73;8.20;;;17.30;99.90;;;;;;4990706;28;20605;-73
2022/09/30 06:59:22;;;;;;;8.37;7.00;;;17.20;99.90;;;;;;4982613;28;20861;-73
2022/09/30 07:01:48;;;;;;;9.77;6.90;;;16.70;99.90;;;;;;4982557;28;20499;-73
2022/09/30 07:04:14;;;;;;;12.90;8.13;;;16.10;99.90;;;;;;4985831;28;20453;-73
2022/09/30 07:06:40;;;;;;;14.20;7.93;;;15.80;99.90;;;;;;4985914;28;20195;-72
2022/09/30 07:09:06;;;;;;;9.27;7.70;;;15.30;99.90;;;;;;4982979;28;20278;-73
2022/09/30 07:11:32;;;;;;;10.63;7.63;;;15.10;99.90;;;;;;4981851;28;20530;-73
2022/09/30 07:13:57;;;;;;;11.60;8.20;;;14.50;99.90;;;;;;4998917;28;20953;-73
2022/09/30 07:16:24;;;;;;;11.13;9.70;;;14.00;99.90;;;;;;4990022;28;20221;-72
2022/09/30 07:18:50;;;;;;;11.80;9.10;;;13.60;99.90;;;;;;4988630;28;20215;-72
2022/09/30 07:21:16;;;;;;;12.87;9.93;;;13.30;99.90;;;;;;4981985;28;20486;-72
2022/09/30 07:23:46;;;;;;;13.60;9.47;;;13.10;99.90;;;;;;4983115;28;20486;-73
2022/09/30 07:26:16;;;;;;;11.43;9.13;;;13.00;99.90;;;;;;4992492;28;20515;-72
2022/09/30 07:28:42;;;;;;;17.70;11.17;;;12.80;99.90;;;;;;4990498;28;20415;-72
2022/09/30 07:31:11;;;;;;;17.17;12.53;;;12.50;99.90;;;;;;4976537;28;20458;-72
2022/09/30 07:33:37;;;;;;;22.13;14.60;;;12.30;99.90;;;;;;4985197;28;20426;-72
2022/09/30 07:36:06;;;;;;;22.40;14.60;;;12.00;99.90;;;;;;4990749;28;20750;-72
2022/09/30 07:38:32;;;;;;;18.60;15.43;;;11.80;99.90;;;;;;4985152;28;20435;-72
2022/09/30 07:41:03;;;;;;;21.83;15.17;;;11.80;99.90;;;;;;4983531;28;20543;-72
2022/09/30 07:43:33;;;;;;;30.63;16.40;;;11.70;99.90;;;;;;4978959;28;20183;-72
2022/09/30 07:46:08;;;;;;;18.87;15.57;;;11.80;99.90;;;;;;4983017;28;20415;-71
2022/09/30 07:48:43;;;;;;;22.27;16.23;;;11.80;99.90;;;;;;4987944;28;20461;-72
2022/09/30 07:51:12;;;;;;;24.07;17.03;;;11.80;99.90;;;;;;4981889;28;20443;-71
2022/09/30 07:53:38;;;;;;;22.67;16.10;;;11.70;99.90;;;;;;4981343;28;20430;-72
2022/09/30 07:56:05;;;;;;;22.20;17.10;;;11.50;99.90;;;;;;4983901;28;20423;-72
2022/09/30 07:58:31;;;;;;;22.83;17.77;;;11.50;99.90;;;;;;4984702;28;20426;-72
2022/09/30 08:00:57;;;;;;;29.17;17.33;;;11.50;99.90;;;;;;4983669;28;20493;-73
2022/09/30 08:03:23;;;;;;;22.23;16.30;;;11.50;99.90;;;;;;4981714;28;20917;-72
2022/09/30 08:05:48;;;;;;;25.33;17.57;;;11.60;99.90;;;;;;4981812;28;20188;-72
2022/09/30 08:08:15;;;;;;;23.27;16.97;;;11.70;99.90;;;;;;4987619;28;20172;-72
2022/09/30 08:10:41;;;;;;;23.87;17.03;;;11.70;99.90;;;;;;4981441;28;20743;-71
2022/09/30 08:13:07;;;;;;;28.17;18.27;;;11.60;99.90;;;;;;4983687;28;20514;-72
2022/09/30 08:15:33;;;;;;;22.30;17.20;;;11.60;99.90;;;;;;4984491;28;20253;-72
2022/09/30 08:17:59;;;;;;;27.53;19.10;;;11.70;99.90;;;;;;4982829;28;20468;-72
2022/09/30 08:20:24;;;;;;;23.47;17.03;;;11.80;99.90;;;;;;4980822;28;20944;-72
2022/09/30 08:22:57;;;;;;;23.90;16.90;;;11.70;99.90;;;;;;4981134;28;20278;-72
2022/09/30 08:25:23;;;;;;;23.33;15.77;;;11.90;99.90;;;;;;4987258;28;20172;-72
2022/09/30 08:27:49;;;;;;;27.13;17.73;;;12.20;99.90;;;;;;4983618;28;20430;-73
2022/09/30 08:30:16;;;;;;;27.37;16.40;;;12.40;99.90;;;;;;4979819;28;20415;-72
2022/09/30 08:32:42;;;;;;;23.33;17.27;;;12.50;99.90;;;;;;4979081;28;20462;-72
2022/09/30 08:35:08;;;;;;;27.63;17.07;;;12.50;99.90;;;;;;4982705;28;20435;-72
2022/09/30 08:37:33;;;;;;;24.93;16.20;;;12.90;99.90;;;;;;4984942;28;20431;-72
2022/09/30 08:39:59;;;;;;;21.13;15.80;;;13.20;99.90;;;;;;4981877;28;20809;-72
2022/09/30 08:42:40;;;;;;;20.73;14.60;;;13.70;99.90;;;;;;4982969;28;20572;-71
2022/09/30 08:45:38;;;;;;;21.03;15.40;;;14.00;99.90;;;;;;4981629;28;20210;-72
2022/09/30 08:48:21;;;;;;;24.60;16.03;;;14.10;99.90;;;;;;4983177;28;20433;-72
2022/09/30 08:51:12;;;;;;;17.87;14.60;;;14.50;99.90;;;;;;4983989;28;20415;-71
2022/09/30 08:53:42;;;;;;;21.80;16.43;;;15.00;99.90;;;;;;4980662;28;20463;-73
2022/09/30 08:56:18;;;;;;;20.67;16.23;;;15.30;99.90;;;;;;4983312;28;20433;-72
2022/09/30 08:58:45;;;;;;;20.07;14.90;;;15.50;99.90;;;;;;4983975;28;20476;-72
2022/09/30 09:01:18;;;;;;;21.10;14.33;;;15.60;99.90;;;;;;4980383;28;20473;-73
2022/09/30 09:03:44;;;;;;;22.97;16.03;;;16.00;99.90;;;;;;4980387;28;20423;-72
2022/09/30 09:06:32;;;;;;;20.73;13.80;;;16.60;99.90;;;;;;4983286;28;20420;-72
2022/09/30 09:09:14;;;;;;;14.70;13.20;;;17.30;99.90;;;;;;4982649;28;20182;-72
2022/09/30 09:12:00;;;;;;;27.80;15.40;;;17.90;99.90;;;;;;4979997;28;21038;-73
2022/09/30 09:14:31;;;;;;;19.43;15.87;;;17.90;99.90;;;;;;4980472;28;20411;-72
2022/09/30 09:17:00;;;;;;;21.60;15.67;;;17.90;99.90;;;;;;4981505;28;20798;-72
2022/09/30 09:19:36;;;;;;;17.30;14.90;;;18.00;99.90;;;;;;4983717;28;20933;-72
2022/09/30 09:22:02;;;;;;;25.70;16.30;;;18.00;99.90;;;;;;4981263;28;20532;-74
2022/09/30 09:24:44;;;;;;;15.80;14.20;;;17.50;99.90;;;;;;4980359;28;20427;-73
2022/09/30 09:27:33;;;;;;;22.20;15.50;;;17.20;99.90;;;;;;4983133;28;20211;-73
2022/09/30 09:30:06;;;;;;;22.80;16.23;;;17.10;99.90;;;;;;4982341;28;20871;-74
2022/09/30 09:32:32;;;;;;;23.27;15.90;;;17.30;99.90;;;;;;4979734;28;20474;-73
2022/09/30 09:35:24;;;;;;;18.67;14.00;;;17.30;99.90;;;;;;4981703;28;20924;-73
2022/09/30 09:40:57;;;;;;;18.67;14.50;;;17.80;99.90;;;;;;4983368;28;20418;-74
2022/09/30 09:43:53;;;;;;;19.77;14.57;;;18.10;99.90;;;;;;4979816;28;20427;-72
2022/09/30 09:46:42;;;;;;;20.70;13.73;;;18.30;99.90;;;;;;4984364;28;20446;-73
2022/09/30 09:49:27;;;;;;;18.00;13.37;;;18.40;99.90;;;;;;4980760;28;20423;-74
2022/09/30 09:52:13;;;;;;;17.03;13.53;;;18.10;99.90;;;;;;4980566;28;20526;-72
2022/09/30 09:54:40;;;;;;;22.60;12.87;;;18.50;99.90;;;;;;4983420;28;20426;-73
2022/09/30 09:57:11;;;;;;;12.87;11.27;;;18.60;99.90;;;;;;4981135;28;20431;-73
2022/09/30 09:59:52;;;;;;;12.10;10.90;;;18.60;99.90;;;;;;4979938;28;20474;-73
2022/09/30 10:02:23;;;;;;;13.60;10.70;;;18.70;99.90;;;;;;4979688;28;20494;-73
2022/09/30 10:04:58;;;;;;;11.60;8.80;;;19.10;99.90;;;;;;4980041;28;20444;-74
2022/09/30 10:07:25;;;;;;;8.20;6.87;;;19.20;99.90;;;;;;4983960;28;20414;-73
2022/09/30 10:10:05;;;;;;;9.90;7.90;;;19.30;99.90;;;;;;4986701;28;20426;-72
2022/09/30 10:12:31;;;;;;;8.23;7.43;;;19.00;99.90;;;;;;4983077;28;20494;-74
2022/09/30 10:15:00;;;;;;;9.80;7.40;;;18.70;99.90;;;;;;4984568;28;20431;-73
2022/09/30 10:17:36;;;;;;;10.70;8.60;;;18.90;99.90;;;;;;4986548;28;20639;-72
2022/09/30 10:20:30;;;;;;;11.30;8.60;;;19.50;99.90;;;;;;4985043;28;20850;-73
2022/09/30 10:23:07;;;;;;;13.00;8.80;;;19.90;99.90;;;;;;4984028;28;20849;-73
2022/09/30 10:25:33;;;;;;;9.83;7.30;;;20.30;99.90;;;;;;4986437;28;20517;-73
2022/09/30 10:28:01;;;;;;;11.30;8.03;;;20.20;99.90;;;;;;4985080;28;20862;-73
2022/09/30 10:30:36;;;;;;;12.10;7.50;;;20.00;99.90;;;;;;4983523;28;20275;-73
2022/09/30 10:33:03;;;;;;;10.80;7.40;;;19.90;99.90;;;;;;4985593;28;20885;-73
2022/09/30 10:35:29;;;;;;;14.07;7.73;;;20.00;99.90;;;;;;4986716;28;20506;-73
2022/09/30 10:37:58;;;;;;;7.40;6.30;;;20.50;99.90;;;;;;4986676;28;20455;-74
2022/09/30 10:40:27;;;;;;;8.83;5.50;;;20.60;99.90;;;;;;4987297;28;20513;-73
2022/09/30 10:42:54;;;;;;;5.43;4.50;;;20.70;99.90;;;;;;4986210;28;20548;-72
2022/09/30 10:45:37;;;;;;;5.10;4.70;;;20.90;99.90;;;;;;4982969;28;20474;-73
2022/09/30 10:48:06;;;;;;;7.20;3.80;;;20.50;99.90;;;;;;4984800;28;20416;-73
2022/09/30 10:50:32;;;;;;;4.10;3.50;;;20.60;99.90;;;;;;4985757;28;20513;-73
2022/09/30 10:53:03;;;;;;;3.27;2.97;;;21.00;99.90;;;;;;4984760;28;21209;-73
2022/09/30 10:55:34;;;;;;;5.60;4.23;;;21.00;99.90;;;;;;4981491;28;20188;-73
2022/09/30 10:58:38;;;;;;;3.60;2.97;;;20.90;99.90;;;;;;4986552;28;20435;-71
2022/09/30 11:01:31;;;;;;;2.63;2.43;;;21.00;99.90;;;;;;4987620;28;21018;-73
2022/09/30 11:04:21;;;;;;;3.97;3.17;;;20.70;99.90;;;;;;4985123;28;20431;-73
2022/09/30 11:06:50;;;;;;;3.70;3.40;;;20.80;99.90;;;;;;4982298;28;20418;-73
2022/09/30 11:09:41;;;;;;;6.43;5.10;;;21.20;99.90;;;;;;4983445;28;20419;-73
2022/09/30 11:12:25;;;;;;;4.57;3.53;;;20.90;99.90;;;;;;4984655;28;20447;-72
2022/09/30 11:15:02;;;;;;;5.87;3.80;;;20.80;99.90;;;;;;4985078;28;20459;-72
2022/09/30 11:17:50;;;;;;;4.40;4.10;;;20.70;99.90;;;;;;4976209;28;20860;-73
2022/09/30 11:20:22;;;;;;;3.80;3.47;;;20.40;99.90;;;;;;4991320;28;20462;-73
2022/09/30 11:23:05;;;;;;;9.20;4.33;;;20.50;99.90;;;;;;4990698;28;20893;-72
2022/09/30 11:25:49;;;;;;;4.37;3.97;;;20.60;99.90;;;;;;4986986;28;20495;-73
2022/09/30 11:28:48;;;;;;;4.93;4.47;;;20.50;99.90;;;;;;4978886;28;20485;-72
2022/09/30 11:31:42;;;;;;;7.10;4.33;;;19.90;99.90;;;;;;4984093;28;20463;-71
2022/09/30 11:34:31;;;;;;;4.77;4.10;;;19.60;99.90;;;;;;4987649;28;20451;-71
2022/09/30 11:37:16;;;;;;;6.77;3.67;;;19.10;99.90;;;;;;5003378;28;20452;-71
2022/09/30 11:40:04;;;;;;;4.80;4.10;;;19.30;99.90;;;;;;4985691;28;20446;-72
2022/09/30 11:42:44;;;;;;;7.33;4.17;;;19.30;99.90;;;;;;4982623;28;20516;-72
2022/09/30 11:45:31;;;;;;;3.80;3.50;;;19.20;99.90;;;;;;4985364;28;20421;-71
2022/09/30 11:48:11;;;;;;;3.60;3.27;;;19.50;99.90;;;;;;4983897;28;20426;-72
2022/09/30 11:51:11;;;;;;;2.83;2.50;;;19.80;99.90;;;;;;4983594;28;20419;-72
2022/09/30 11:54:10;;;;;;;4.50;2.77;;;19.90;99.90;;;;;;4984965;28;20462;-73
2022/09/30 11:56:41;;;;;;;1.73;1.50;;;19.80;99.90;;;;;;4988228;28;21041;-72
2022/09/30 11:59:21;;;;;;;3.33;3.03;;;19.40;99.90;;;;;;4991424;28;20431;-73
2022/09/30 12:01:49;;;;;;;3.87;3.20;;;18.90;99.90;;;;;;4989585;28;20546;-72
2022/09/30 12:04:44;;;;;;;2.90;2.60;;;18.70;99.90;;;;;;4984727;28;20548;-70
2022/09/30 12:07:18;;;;;;;4.93;3.70;;;18.60;99.90;;;;;;4978164;28;20497;-73
2022/09/30 12:09:55;;;;;;;2.53;2.37;;;18.90;99.90;;;;;;4987284;28;20588;-74
2022/09/30 12:12:20;;;;;;;4.07;3.67;;;18.90;99.90;;;;;;4980836;28;20549;-73
2022/09/30 12:14:53;;;;;;;5.63;3.73;;;18.50;99.90;;;;;;4991071;28;21018;-72
2022/09/30 12:17:27;;;;;;;3.30;3.00;;;18.40;99.90;;;;;;4988509;28;20239;-73
2022/09/30 12:19:56;;;;;;;3.27;3.00;;;18.30;99.90;;;;;;4987451;28;20454;-73
2022/09/30 12:22:30;;;;;;;4.53;2.80;;;18.50;99.90;;;;;;4979180;28;20482;-73
2022/09/30 12:24:55;;;;;;;7.03;3.00;;;18.30;99.90;;;;;;4980808;28;20447;-73
2022/09/30 12:27:34;;;;;;;3.60;3.27;;;18.20;99.90;;;;;;4982834;28;20458;-73
2022/09/30 12:30:17;;;;;;;3.83;3.33;;;17.90;99.90;;;;;;4981597;28;20242;-72
2022/09/30 12:32:58;;;;;;;2.87;2.67;;;18.00;99.90;;;;;;4979275;28;20475;-71
2022/09/30 12:35:57;;;;;;;6.10;3.00;;;18.20;99.90;;;;;;4984099;28;20442;-71
2022/09/30 12:38:49;;;;;;;3.10;2.30;;;18.40;99.90;;;;;;4979383;28;20461;-71
2022/09/30 12:41:39;;;;;;;4.40;2.53;;;18.70;99.90;;;;;;4979425;28;20474;-70
2022/09/30 12:44:05;;;;;;;5.43;2.70;;;18.60;99.90;;;;;;4981756;28;20432;-72
2022/09/30 12:47:08;;;;;;;3.57;3.20;;;18.60;99.90;;;;;;4982845;28;20492;-70
2022/09/30 12:49:37;;;;;;;4.93;2.03;;;18.30;99.90;;;;;;4963466;28;20227;-72
2022/09/30 12:52:06;;;;;;;3.57;2.40;;;18.10;99.90;;;;;;4980527;28;20440;-71
2022/09/30 12:54:35;;;;;;;3.33;2.60;;;18.20;99.90;;;;;;4982769;28;20429;-71
2022/09/30 12:57:06;;;;;;;5.80;2.50;;;18.20;99.90;;;;;;4981022;28;20442;-71
2022/09/30 12:59:35;;;;;;;2.43;2.00;;;18.10;99.90;;;;;;4984138;28;20879;-71
2022/09/30 13:02:03;;;;;;;3.63;2.27;;;17.90;99.90;;;;;;4981526;28;20544;-70
2022/09/30 13:04:37;;;;;;;5.07;2.43;;;17.70;99.90;;;;;;4980309;28;20419;-71
2022/09/30 13:07:06;;;;;;;2.80;2.60;;;17.60;99.90;;;;;;4980213;28;20513;-71
2022/09/30 13:09:53;;;;;;;2.13;1.77;;;17.60;99.90;;;;;;4980601;28;20924;-71
2022/09/30 13:12:46;;;;;;;2.80;1.90;;;17.60;99.90;;;;;;4979996;28;20481;-71
2022/09/30 13:15:28;;;;;;;3.10;2.37;;;17.60;99.90;;;;;;4983151;28;20913;-70
2022/09/30 13:18:01;;;;;;;2.00;1.90;;;17.70;99.90;;;;;;4982954;28;20426;-71
2022/09/30 13:20:57;;;;;;;6.50;2.47;;;17.90;99.90;;;;;;4980364;28;20431;-72
2022/09/30 13:23:37;;;;;;;2.20;2.00;;;18.10;99.90;;;;;;4979871;28;20799;-72
2022/09/30 13:26:21;;;;;;;2.47;2.27;;;18.20;99.90;;;;;;4980754;28;20441;-71
2022/09/30 13:28:46;;;;;;;6.70;2.23;;;18.00;99.90;;;;;;4980198;28;20423;-71
2022/09/30 13:31:23;;;;;;;6.07;4.30;;;18.00;99.90;;;;;;4980096;28;20459;-70
2022/09/30 13:34:00;;;;;;;3.10;2.60;;;18.00;99.90;;;;;;4979897;28;20179;-72
2022/09/30 13:36:52;;;;;;;3.73;2.60;;;17.80;99.90;;;;;;4986575;28;20979;-72
2022/09/30 13:39:26;;;;;;;2.53;2.40;;;17.80;99.90;;;;;;4976504;28;20422;-71
2022/09/30 13:42:16;;;;;;;3.20;2.13;;;17.70;99.90;;;;;;4983110;28;20465;-70
2022/09/30 13:45:18;;;;;;;5.73;2.60;;;17.70;99.90;;;;;;4984130;28;20411;-71
2022/09/30 13:48:09;;;;;;;2.57;2.03;;;17.70;99.90;;;;;;4984017;28;20784;-70
2022/09/30 13:50:50;;;;;;;6.20;3.07;;;17.80;99.90;;;;;;4983754;28;20415;-71
2022/09/30 13:53:29;;;;;;;4.30;2.77;;;17.80;99.90;;;;;;4983548;28;20411;-72
2022/09/30 13:55:57;;;;;;;4.80;2.20;;;17.80;99.90;;;;;;4984514;28;20415;-71
2022/09/30 13:58:40;;;;;;;2.53;2.33;;;17.80;99.90;;;;;;4986779;28;20479;-71
2022/09/30 14:01:34;;;;;;;3.13;2.40;;;17.80;99.90;;;;;;4984708;28;20461;-72
2022/09/30 14:04:22;;;;;;;3.00;2.13;;;17.70;99.90;;;;;;4984754;28;20411;-72
2022/09/30 14:07:09;;;;;;;2.40;2.20;;;17.70;99.90;;;;;;4986883;28;20411;-71
2022/09/30 14:10:06;;;;;;;3.10;2.40;;;17.60;99.90;;;;;;4983284;28;20423;-71
2022/09/30 14:12:51;;;;;;;2.13;1.97;;;17.60;99.90;;;;;;4983271;28;20538;-72
2022/09/30 14:15:55;;;;;;;3.23;2.10;;;17.50;99.90;;;;;;4977698;28;20480;-71
2022/09/30 14:18:30;;;;;;;2.43;2.23;;;17.50;99.90;;;;;;4983320;28;20995;-70
2022/09/30 14:21:24;;;;;;;2.07;1.87;;;17.40;99.90;;;;;;4992680;28;20621;-71
2022/09/30 14:24:02;;;;;;;5.60;1.83;;;17.40;99.90;;;;;;4989718;28;20529;-70
2022/09/30 14:26:43;;;;;;;4.10;2.60;;;17.40;99.90;;;;;;4987760;28;20450;-69
2022/09/30 14:30:08;;;;;;;5.00;2.07;;;17.30;99.90;;;;;;4981042;28;20896;-71
2022/09/30 14:32:45;;;;;;;2.13;1.87;;;17.20;99.90;;;;;;4939609;29;20489;-70
2022/09/30 14:35:17;;;;;;;4.87;1.87;;;17.10;99.90;;;;;;4947955;28;20462;-71
2022/09/30 14:37:51;;;;;;;3.30;2.47;;;17.20;99.90;;;;;;4974116;28;20465;-71
2022/09/30 14:40:22;;;;;;;3.97;2.43;;;17.10;99.90;;;;;;4985144;28;20460;-71
2022/09/30 14:42:48;;;;;;;6.30;2.90;;;17.10;99.90;;;;;;4985034;28;20474;-72
2022/09/30 14:45:24;;;;;;;3.40;3.10;;;17.10;99.90;;;;;;4981997;28;20716;-71
2022/09/30 14:47:52;;;;;;;5.93;2.60;;;17.10;99.90;;;;;;4981897;28;20695;-72
2022/09/30 14:50:26;;;;;;;4.97;2.80;;;17.10;99.90;;;;;;4984823;28;20480;-73
2022/09/30 14:52:56;;;;;;;3.90;2.67;;;17.10;99.90;;;;;;4984319;28;20469;-71